Time;durP1;ratioP1;P1;durP2;ratioP2;P2;SDS_P1;SDS_P2;PMS_P1;PMS_P2;Temp;Humidity;BMP_temperature;BMP_pressure;BME280_temperature;BME280_humidity;BME280_pressure;Samples;Min_cycle;Max_cycle;Signal;HPM_P1;HPM_P2
2020/12/24 00:01:06;;;;;;;0.47;0.47;;;10.20;99.90;;;;;;4953373;28;20070;-88
2020/12/24 00:03:32;;;;;;;0.10;0.10;;;10.30;99.90;;;;;;4965606;28;20031;-90
2020/12/24 00:05:58;;;;;;;0.57;0.57;;;10.20;99.90;;;;;;4952379;28;20047;-90
2020/12/24 00:08:24;;;;;;;0.85;0.85;;;10.20;99.90;;;;;;4968209;28;20018;-90
2020/12/24 00:10:50;;;;;;;0.73;0.73;;;10.20;99.90;;;;;;4976498;28;20515;-90
2020/12/24 00:13:16;;;;;;;1.65;0.80;;;10.20;99.90;;;;;;4953632;28;20288;-90
2020/12/24 00:15:45;;;;;;;0.22;0.22;;;10.20;99.90;;;;;;4955400;28;20038;-89
2020/12/24 00:18:11;;;;;;;3.28;1.13;;;10.20;99.90;;;;;;4973355;28;20045;-88
2020/12/24 00:20:37;;;;;;;0.10;0.10;;;10.20;99.90;;;;;;4974393;28;20026;-89
2020/12/24 00:23:03;;;;;;;0.10;0.10;;;10.10;99.90;;;;;;4964359;28;20407;-90
2020/12/24 00:25:29;;;;;;;0.20;0.20;;;10.10;99.90;;;;;;4955563;28;20408;-89
2020/12/24 00:27:54;;;;;;;0.43;0.43;;;10.10;99.90;;;;;;4954970;28;20031;-90
2020/12/24 00:30:20;;;;;;;0.43;0.43;;;10.10;99.90;;;;;;4957612;28;20022;-91
2020/12/24 00:32:46;;;;;;;0.70;0.70;;;10.10;99.90;;;;;;4976611;28;20149;-90
2020/12/24 00:35:12;;;;;;;2.60;2.30;;;10.00;99.90;;;;;;4956536;28;20030;-91
2020/12/24 00:37:38;;;;;;;2.65;1.27;;;10.00;99.90;;;;;;4973164;28;20043;-91
2020/12/24 00:40:04;;;;;;;16.00;1.08;;;10.00;99.90;;;;;;4978331;28;20018;-90
2020/12/24 00:42:30;;;;;;;0.22;0.22;;;10.00;99.90;;;;;;4972401;28;20058;-90
2020/12/24 00:44:56;;;;;;;0.28;0.28;;;10.00;99.90;;;;;;4955079;28;20038;-90
2020/12/24 00:47:22;;;;;;;0.10;0.10;;;10.00;99.90;;;;;;4955427;28;20027;-90
2020/12/24 00:49:47;;;;;;;1.00;0.82;;;10.00;99.90;;;;;;4973609;28;20041;-90
2020/12/24 00:52:13;;;;;;;1.13;1.10;;;9.90;99.90;;;;;;4962479;28;20531;-90
2020/12/24 00:54:39;;;;;;;3.00;1.55;;;10.00;99.90;;;;;;4962435;28;20030;-91
2020/12/24 00:57:05;;;;;;;0.73;0.73;;;10.00;99.90;;;;;;4964716;28;20019;-90
2020/12/24 00:59:30;;;;;;;1.20;1.10;;;10.00;99.90;;;;;;4972302;28;20027;-89
2020/12/24 01:01:57;;;;;;;0.43;0.43;;;9.90;99.90;;;;;;4954522;28;20038;-89
2020/12/24 01:04:23;;;;;;;1.08;0.60;;;9.90;99.90;;;;;;4977646;28;20053;-89
2020/12/24 01:06:48;;;;;;;0.20;0.20;;;9.90;99.90;;;;;;4960016;28;20032;-89
2020/12/24 01:09:14;;;;;;;0.10;0.10;;;9.90;99.90;;;;;;4971640;28;20026;-89
2020/12/24 01:11:40;;;;;;;0.20;0.20;;;9.80;99.90;;;;;;4954779;28;20034;-89
2020/12/24 01:14:06;;;;;;;0.15;0.15;;;9.90;99.90;;;;;;4973991;28;20086;-89
2020/12/24 01:16:33;;;;;;;29.23;1.17;;;9.80;99.90;;;;;;4971512;28;20059;-90
2020/12/24 01:19:00;;;;;;;0.85;0.85;;;9.80;99.90;;;;;;4956805;28;20120;-90
2020/12/24 01:21:26;;;;;;;0.17;0.17;;;9.80;99.90;;;;;;4958054;28;20106;-90
2020/12/24 01:23:52;;;;;;;0.73;0.73;;;9.80;99.90;;;;;;4953670;28;20039;-89
2020/12/24 01:26:18;;;;;;;0.10;0.10;;;9.70;99.90;;;;;;4959869;28;20048;-89
2020/12/24 01:28:44;;;;;;;0.20;0.20;;;9.70;99.90;;;;;;4984437;28;20014;-90
2020/12/24 01:31:10;;;;;;;0.10;0.10;;;9.70;99.90;;;;;;4971684;28;20039;-90
2020/12/24 01:33:36;;;;;;;0.75;0.75;;;9.60;99.90;;;;;;4972503;28;20438;-90
2020/12/24 01:36:02;;;;;;;0.10;0.10;;;9.70;99.90;;;;;;4971877;28;20030;-90
2020/12/24 01:38:28;;;;;;;0.10;0.10;;;9.70;1.00;;;;;;4956819;28;20085;-89
2020/12/24 01:41:01;;;;;;;0.38;0.38;;;9.70;99.90;;;;;;4953955;28;20035;-91
2020/12/24 01:43:27;;;;;;;0.50;0.50;;;9.70;1.00;;;;;;4966480;28;20030;-91
2020/12/24 01:45:57;;;;;;;0.63;0.63;;;9.70;95.70;;;;;;4971785;28;20023;-90
2020/12/24 01:48:24;;;;;;;1.02;0.43;;;9.70;99.90;;;;;;4953482;28;20022;-90
2020/12/24 01:50:50;;;;;;;0.80;0.65;;;9.70;99.90;;;;;;4959325;28;20668;-91
2020/12/24 01:53:21;;;;;;;0.65;0.65;;;9.80;99.90;;;;;;4973115;28;20108;-91
2020/12/24 01:55:48;;;;;;;0.38;0.38;;;9.80;99.90;;;;;;4973408;28;20471;-90
2020/12/24 01:58:15;;;;;;;0.57;0.57;;;9.80;99.90;;;;;;4959374;28;20029;-91
2020/12/24 02:00:41;;;;;;;;;;;9.80;99.90;;;;;;4973773;28;20134;-91
2020/12/24 02:03:07;;;;;;;0.10;0.10;;;9.80;99.90;;;;;;4954199;28;19992;-89
2020/12/24 02:05:32;;;;;;;0.40;0.40;;;9.70;99.90;;;;;;4953810;28;20130;-90
2020/12/24 02:07:58;;;;;;;1.98;1.38;;;9.70;99.90;;;;;;4960908;28;20109;-89
2020/12/24 02:10:25;;;;;;;0.10;0.10;;;9.70;99.90;;;;;;4970406;28;20042;-89
2020/12/24 02:12:51;;;;;;;0.30;0.30;;;9.70;99.90;;;;;;4941151;29;20046;-89
2020/12/24 02:15:16;;;;;;;0.10;0.10;;;9.70;99.90;;;;;;4951162;28;20031;-90
2020/12/24 02:17:42;;;;;;;0.50;0.40;;;9.70;1.00;;;;;;4957929;28;20126;-90
2020/12/24 02:20:08;;;;;;;0.43;0.43;;;9.70;99.90;;;;;;4958092;28;20058;-91
2020/12/24 02:22:34;;;;;;;0.35;0.35;;;9.60;99.90;;;;;;4976874;28;20049;-91
2020/12/24 02:24:59;;;;;;;0.25;0.25;;;9.70;99.90;;;;;;4957138;28;20082;-91
2020/12/24 02:27:25;;;;;;;0.63;0.63;;;9.70;1.00;;;;;;4970933;28;20129;-92
2020/12/24 02:29:51;;;;;;;1.83;0.75;;;9.60;99.90;;;;;;4958894;28;20045;-91
2020/12/24 02:32:17;;;;;;;0.10;0.10;;;9.60;99.90;;;;;;4963838;28;20078;-91
2020/12/24 02:34:43;;;;;;;0.50;0.50;;;9.60;99.90;;;;;;4976817;28;20057;-92
2020/12/24 02:37:10;;;;;;;0.77;0.77;;;9.60;99.90;;;;;;4960695;28;20039;-92
2020/12/24 02:39:35;;;;;;;;;;;9.60;99.10;;;;;;4960993;28;20050;-92
2020/12/24 02:42:01;;;;;;;2.03;1.23;;;9.60;63.60;;;;;;4958461;28;19917;-91
2020/12/24 02:44:27;;;;;;;1.70;1.60;;;9.50;20.70;;;;;;4954800;28;20023;-90
2020/12/24 02:46:52;;;;;;;10.65;1.13;;;9.50;1.00;;;;;;4955588;28;20078;-88
2020/12/24 02:49:18;;;;;;;0.85;0.85;;;9.50;99.90;;;;;;4952879;28;20110;-91
2020/12/24 02:51:44;;;;;;;2.90;1.50;;;9.40;99.90;;;;;;4954062;28;20037;-90
2020/12/24 02:54:10;;;;;;;0.32;0.32;;;9.40;99.90;;;;;;4954831;28;20038;-90
2020/12/24 02:56:35;;;;;;;0.10;0.10;;;9.60;99.90;;;;;;4971035;28;20143;-91
2020/12/24 02:59:01;;;;;;;0.15;0.15;;;9.50;99.90;;;;;;4957661;28;20039;-92
2020/12/24 03:01:27;;;;;;;0.10;0.10;;;9.40;99.90;;;;;;4969919;28;20038;-90
2020/12/24 03:03:53;;;;;;;0.15;0.15;;;9.40;99.90;;;;;;4977379;28;20027;-91
2020/12/24 03:06:18;;;;;;;0.10;0.10;;;9.40;99.90;;;;;;4952252;28;20054;-91
2020/12/24 03:08:44;;;;;;;0.10;0.10;;;9.50;99.90;;;;;;4958000;28;20022;-91
2020/12/24 03:11:10;;;;;;;0.10;0.10;;;9.40;99.90;;;;;;4970423;28;20038;-89
2020/12/24 03:13:36;;;;;;;0.45;0.45;;;9.40;99.90;;;;;;4952841;28;20041;-91
2020/12/24 03:16:02;;;;;;;0.57;0.57;;;9.30;99.90;;;;;;4957948;28;20045;-90
2020/12/24 03:18:27;;;;;;;1.05;0.25;;;9.20;99.90;;;;;;4980265;28;20027;-91
2020/12/24 03:20:53;;;;;;;0.20;0.20;;;9.10;99.90;;;;;;4952544;28;20046;-91
2020/12/24 03:23:19;;;;;;;6.13;1.90;;;9.00;99.90;;;;;;4953240;28;20440;-88
2020/12/24 03:25:45;;;;;;;0.10;0.10;;;9.00;99.90;;;;;;4956281;28;21672;-91
2020/12/24 03:28:10;;;;;;;0.20;0.20;;;9.00;99.90;;;;;;4952812;28;20122;-90
2020/12/24 03:30:36;;;;;;;6.22;0.93;;;9.00;99.90;;;;;;4970132;28;20042;-91
2020/12/24 03:33:02;;;;;;;2.97;1.15;;;8.90;99.90;;;;;;4952278;28;20026;-90
2020/12/24 03:35:28;;;;;;;0.80;0.80;;;8.80;99.90;;;;;;4952567;28;20031;-91
2020/12/24 03:37:54;;;;;;;0.85;0.82;;;8.70;99.90;;;;;;4956580;28;20031;-90
2020/12/24 03:40:19;;;;;;;0.45;0.45;;;8.70;99.90;;;;;;4968719;28;20049;-90
2020/12/24 03:42:45;;;;;;;0.20;0.20;;;8.70;99.90;;;;;;4938826;28;20027;-90
2020/12/24 03:45:11;;;;;;;0.30;0.30;;;8.70;99.90;;;;;;4954255;28;20041;-89
2020/12/24 03:47:37;;;;;;;0.28;0.28;;;8.70;99.90;;;;;;4956874;28;20054;-89
2020/12/24 03:50:04;;;;;;;0.22;0.22;;;8.70;99.90;;;;;;4952512;28;20059;-89
2020/12/24 03:52:30;;;;;;;0.20;0.20;;;8.60;99.90;;;;;;4953178;28;20062;-89
2020/12/24 03:54:55;;;;;;;8.43;0.98;;;8.60;99.90;;;;;;4957332;28;20504;-89
2020/12/24 03:57:21;;;;;;;0.40;0.40;;;8.50;99.90;;;;;;4954386;28;20033;-89
2020/12/24 03:59:47;;;;;;;0.10;0.10;;;8.50;99.90;;;;;;4955235;28;20031;-89
2020/12/24 04:02:12;;;;;;;0.20;0.20;;;8.40;99.90;;;;;;4968860;28;20080;-89
2020/12/24 04:04:38;;;;;;;0.40;0.40;;;8.40;99.90;;;;;;4969958;28;20527;-89
2020/12/24 04:07:04;;;;;;;0.20;0.20;;;8.40;99.90;;;;;;4952731;28;20400;-90
2020/12/24 04:09:30;;;;;;;0.10;0.10;;;8.40;99.90;;;;;;4969370;28;20022;-90
2020/12/24 04:11:56;;;;;;;0.20;0.20;;;8.50;99.90;;;;;;4954146;28;20428;-89
2020/12/24 04:14:21;;;;;;;11.80;1.85;;;8.50;99.90;;;;;;4968263;28;20050;-88
2020/12/24 04:16:47;;;;;;;0.10;0.10;;;8.60;99.90;;;;;;4977618;28;20031;-90
2020/12/24 04:19:15;;;;;;;0.10;0.10;;;8.60;99.90;;;;;;4970365;28;20038;-89
2020/12/24 04:21:41;;;;;;;0.28;0.28;;;8.70;99.90;;;;;;4970570;28;20069;-89
2020/12/24 04:24:06;;;;;;;0.20;0.20;;;8.60;99.90;;;;;;4951935;28;20022;-89
2020/12/24 04:26:32;;;;;;;0.17;0.17;;;8.50;99.90;;;;;;4952049;28;20069;-89
2020/12/24 04:28:58;;;;;;;0.10;0.10;;;8.50;78.00;;;;;;4951760;28;20031;-90
2020/12/24 04:31:24;;;;;;;0.93;0.80;;;8.50;57.00;;;;;;4951603;28;20121;-89
2020/12/24 04:33:49;;;;;;;2.13;1.17;;;8.30;35.50;;;;;;4954087;28;20385;-89
2020/12/24 04:36:15;;;;;;;0.17;0.17;;;8.30;43.60;;;;;;4987065;28;20668;-89
2020/12/24 04:38:42;;;;;;;0.43;0.38;;;8.30;86.20;;;;;;4975411;28;20404;-89
2020/12/24 04:41:09;;;;;;;0.20;0.20;;;8.20;46.10;;;;;;4953893;28;20023;-89
2020/12/24 04:43:38;;;;;;;0.10;0.10;;;8.20;74.00;;;;;;4971995;28;20035;-89
2020/12/24 04:46:06;;;;;;;0.68;0.35;;;8.30;15.10;;;;;;4968973;28;20055;-89
2020/12/24 04:48:33;;;;;;;0.35;0.35;;;8.20;14.30;;;;;;4981671;28;20519;-90
2020/12/24 04:51:00;;;;;;;1.80;1.55;;;8.10;1.00;;;;;;4976433;28;20026;-89
2020/12/24 04:53:26;;;;;;;0.10;0.10;;;8.10;1.00;;;;;;4976723;28;20039;-89
2020/12/24 04:55:54;;;;;;;0.55;0.55;;;8.10;1.00;;;;;;4970083;28;20437;-89
2020/12/24 04:58:22;;;;;;;0.10;0.10;;;8.00;1.00;;;;;;4967792;28;20689;-89
2020/12/24 05:00:48;;;;;;;1.02;0.85;;;7.80;1.00;;;;;;4973309;28;20031;-89
2020/12/24 05:03:15;;;;;;;0.45;0.45;;;7.60;1.00;;;;;;4955383;28;20026;-89
2020/12/24 05:05:44;;;;;;;0.08;0.08;;;7.60;1.00;;;;;;4971868;28;20055;-90
2020/12/24 05:08:09;;;;;;;0.82;0.82;;;7.60;1.00;;;;;;4956264;28;20226;-89
2020/12/24 05:10:37;;;;;;;0.08;0.08;;;7.60;1.00;;;;;;4976425;28;20039;-89
2020/12/24 05:13:17;;;;;;;0.38;0.38;;;7.60;1.00;;;;;;4956876;28;20031;-90
2020/12/24 05:15:43;;;;;;;0.10;0.10;;;7.60;1.00;;;;;;4954290;28;20042;-88
2020/12/24 05:18:23;;;;;;;0.32;0.32;;;7.60;1.00;;;;;;4971627;28;20023;-89
2020/12/24 05:20:50;;;;;;;0.80;0.35;;;7.60;1.00;;;;;;4971844;28;21311;-89
2020/12/24 05:23:20;;;;;;;0.15;0.15;;;7.60;1.00;;;;;;4972766;28;20037;-89
2020/12/24 05:25:48;;;;;;;0.20;0.20;;;7.60;1.00;;;;;;4974597;28;20114;-89
2020/12/24 05:28:25;;;;;;;1.75;1.00;;;7.60;1.00;;;;;;4971541;28;20512;-89
2020/12/24 05:30:52;;;;;;;2.92;1.95;;;7.60;1.00;;;;;;4955173;28;20041;-90
2020/12/24 05:33:31;;;;;;;0.32;0.32;;;7.60;1.00;;;;;;4957007;28;20114;-89
2020/12/24 05:36:17;;;;;;;0.10;0.10;;;7.50;99.90;;;;;;4954378;28;20918;-90
2020/12/24 05:38:44;;;;;;;0.13;0.13;;;7.50;99.90;;;;;;4960902;28;20033;-88
2020/12/24 05:41:35;;;;;;;0.10;0.10;;;7.40;99.90;;;;;;4972198;28;20512;-88
2020/12/24 05:44:03;;;;;;;0.10;0.10;;;7.40;99.90;;;;;;4981453;28;20129;-88
2020/12/24 05:46:40;;;;;;;0.10;0.10;;;7.50;99.90;;;;;;4978801;28;20062;-88
2020/12/24 05:49:18;;;;;;;0.68;0.68;;;7.50;99.90;;;;;;4956936;28;20037;-88
2020/12/24 05:51:54;;;;;;;0.32;0.32;;;7.50;99.90;;;;;;4970818;28;20045;-88
2020/12/24 05:54:21;;;;;;;0.10;0.10;;;7.50;99.90;;;;;;4974822;28;20030;-88
2020/12/24 05:56:47;;;;;;;0.90;0.55;;;7.50;99.90;;;;;;4970465;28;20094;-88
2020/12/24 05:59:24;;;;;;;0.10;0.10;;;7.50;99.90;;;;;;4955400;28;20567;-89
2020/12/24 06:02:06;;;;;;;;;;;7.50;99.90;;;;;;4955355;28;20053;-92
2020/12/24 06:04:44;;;;;;;0.73;0.68;;;7.50;99.90;;;;;;4976063;28;19922;-88
2020/12/24 06:07:31;;;;;;;1.25;1.15;;;7.40;99.90;;;;;;4980341;28;20030;-89
2020/12/24 06:10:06;;;;;;;0.10;0.10;;;7.50;99.90;;;;;;4955608;28;20059;-92
2020/12/24 06:12:31;;;;;;;2.17;1.35;;;7.50;99.90;;;;;;4961850;28;20027;-91
2020/12/24 06:15:00;;;;;;;4.50;0.82;;;7.50;99.90;;;;;;4948144;28;20061;-92
2020/12/24 06:17:27;;;;;;;0.75;0.63;;;7.50;99.90;;;;;;4985207;28;20023;-92
2020/12/24 06:19:54;;;;;;;2.47;1.08;;;7.50;99.90;;;;;;4956696;28;20019;-94
2020/12/24 06:22:22;;;;;;;2.60;0.95;;;7.50;99.90;;;;;;4958314;28;20031;-92
2020/12/24 06:25:00;;;;;;;0.10;0.10;;;7.40;99.90;;;;;;4955345;28;20030;-91
2020/12/24 06:27:42;;;;;;;25.73;1.48;;;7.50;99.90;;;;;;4956034;28;20110;-95
2020/12/24 06:30:20;;;;;;;0.28;0.28;;;7.40;99.90;;;;;;4959852;28;20378;-93
2020/12/24 06:32:52;;;;;;;0.47;0.47;;;7.30;99.90;;;;;;4953511;28;20121;-94
2020/12/24 06:35:38;;;;;;;0.63;0.63;;;7.30;99.90;;;;;;4959006;28;20031;-94
2020/12/24 06:38:09;;;;;;;0.25;0.25;;;7.30;99.90;;;;;;4957697;28;20113;-93
2020/12/24 06:40:38;;;;;;;0.65;0.65;;;7.10;99.90;;;;;;4957699;28;20030;-93
2020/12/24 06:43:06;;;;;;;0.80;0.50;;;7.20;48.90;;;;;;4958107;28;20031;-91
2020/12/24 06:45:34;;;;;;;0.10;0.10;;;7.20;1.00;;;;;;4957313;28;20058;-88
2020/12/24 06:48:15;;;;;;;1.95;1.38;;;7.20;1.00;;;;;;4973594;28;20034;-91
2020/12/24 06:50:44;;;;;;;0.50;0.50;;;7.20;1.00;;;;;;4972102;28;20046;-89
2020/12/24 06:53:26;;;;;;;0.40;0.40;;;7.20;1.00;;;;;;4953422;28;20474;-88
2020/12/24 06:56:15;;;;;;;0.75;0.75;;;7.30;1.00;;;;;;4953515;28;20031;-89
2020/12/24 06:58:50;;;;;;;0.43;0.43;;;7.20;1.00;;;;;;4953291;28;20129;-89
2020/12/24 07:01:19;;;;;;;4.40;1.05;;;7.30;1.00;;;;;;4953167;28;20428;-89
2020/12/24 07:03:46;;;;;;;0.30;0.30;;;7.30;1.00;;;;;;4953208;28;20815;-89
2020/12/24 07:06:12;;;;;;;0.10;0.10;;;7.40;99.90;;;;;;4970645;28;20047;-89
2020/12/24 07:08:37;;;;;;;0.57;0.57;;;7.30;99.90;;;;;;4970536;28;20085;-88
2020/12/24 07:11:04;;;;;;;0.10;0.10;;;7.30;99.90;;;;;;4970157;28;20501;-90
2020/12/24 07:13:39;;;;;;;3.33;2.78;;;7.20;99.90;;;;;;4940402;28;20109;-92
2020/12/24 07:16:06;;;;;;;0.10;0.10;;;7.10;99.90;;;;;;4953623;28;20034;-91
2020/12/24 07:18:35;;;;;;;0.35;0.35;;;7.10;99.90;;;;;;4953767;28;20084;-89
2020/12/24 07:21:03;;;;;;;3.83;1.40;;;7.10;99.90;;;;;;4952892;28;20824;-90
2020/12/24 07:23:36;;;;;;;0.10;0.10;;;7.20;99.90;;;;;;4952286;28;20030;-88
2020/12/24 07:26:10;;;;;;;0.10;0.10;;;7.30;99.90;;;;;;4970130;28;20041;-88
2020/12/24 07:28:40;;;;;;;0.10;0.10;;;7.30;99.90;;;;;;4952113;28;20444;-89
2020/12/24 07:31:08;;;;;;;0.40;0.40;;;7.20;99.90;;;;;;4952846;28;20456;-91
2020/12/24 07:33:35;;;;;;;1.27;0.50;;;7.10;99.90;;;;;;4954353;28;20791;-90
2020/12/24 07:36:01;;;;;;;10.35;0.80;;;7.00;99.90;;;;;;4954421;28;20293;-91
2020/12/24 07:38:30;;;;;;;0.45;0.43;;;7.10;99.90;;;;;;4954237;28;20035;-91
2020/12/24 07:40:57;;;;;;;0.20;0.20;;;7.00;99.90;;;;;;4954205;28;20062;-91
2020/12/24 07:43:25;;;;;;;1.08;0.93;;;7.00;99.90;;;;;;4943513;28;20497;-91
2020/12/24 07:45:51;;;;;;;1.90;1.70;;;7.00;99.90;;;;;;4951860;28;20037;-91
2020/12/24 07:48:21;;;;;;;0.10;0.10;;;7.10;99.90;;;;;;4953571;28;20501;-91
2020/12/24 07:50:51;;;;;;;0.20;0.20;;;7.20;99.90;;;;;;4953929;28;20551;-91
2020/12/24 07:53:28;;;;;;;1.17;1.08;;;7.30;99.90;;;;;;4974874;28;20033;-92
2020/12/24 07:56:10;;;;;;;2.70;1.08;;;7.30;99.90;;;;;;4956297;28;20033;-93
2020/12/24 07:58:37;;;;;;;0.10;0.10;;;7.40;99.90;;;;;;4956232;28;20505;-92
2020/12/24 08:01:05;;;;;;;5.45;2.13;;;7.40;99.90;;;;;;4956160;28;20054;-93
2020/12/24 08:03:32;;;;;;;0.20;0.20;;;7.40;99.90;;;;;;4956272;28;20058;-94
2020/12/24 08:06:06;;;;;;;0.20;0.20;;;7.40;99.90;;;;;;4973319;28;20050;-93
2020/12/24 08:08:35;;;;;;;0.10;0.10;;;7.40;99.90;;;;;;4967857;28;20023;-91
2020/12/24 08:11:08;;;;;;;0.10;0.10;;;7.50;99.90;;;;;;4959600;28;20041;-93
2020/12/24 08:13:33;;;;;;;0.10;0.10;;;7.50;99.90;;;;;;4955563;28;20023;-90
2020/12/24 08:16:00;;;;;;;0.75;0.75;;;7.60;99.90;;;;;;4941805;28;20031;-92
2020/12/24 08:18:41;;;;;;;0.50;0.50;;;7.70;99.90;;;;;;4943139;28;20031;-92
2020/12/24 08:21:19;;;;;;;0.57;0.57;;;7.90;99.90;;;;;;4944561;29;20048;-92
2020/12/24 08:23:49;;;;;;;0.30;0.30;;;7.90;99.90;;;;;;4950426;29;20027;-92
2020/12/24 08:26:16;;;;;;;0.47;0.47;;;8.00;99.90;;;;;;4938451;29;20102;-92
2020/12/24 08:28:53;;;;;;;;;;;8.50;99.90;;;;;;4951692;28;20090;-92
2020/12/24 08:31:20;;;;;;;2.42;0.95;;;8.60;99.90;;;;;;4954364;28;20001;-90
2020/12/24 08:33:51;;;;;;;0.10;0.10;;;8.80;99.90;;;;;;4953353;28;20031;-92
2020/12/24 08:36:21;;;;;;;0.10;0.10;;;8.30;99.90;;;;;;4956866;28;20125;-90
2020/12/24 08:38:47;;;;;;;0.77;0.77;;;8.10;99.90;;;;;;4955444;28;20027;-91
2020/12/24 08:41:22;;;;;;;0.28;0.28;;;8.20;99.90;;;;;;4945088;28;20416;-92
2020/12/24 08:43:54;;;;;;;0.50;0.50;;;8.40;99.90;;;;;;4978108;28;20041;-92
2020/12/24 08:46:23;;;;;;;0.65;0.65;;;8.50;99.90;;;;;;4957528;28;20102;-91
2020/12/24 08:48:49;;;;;;;0.47;0.47;;;8.50;99.90;;;;;;4956760;28;20144;-90
2020/12/24 08:51:18;;;;;;;0.50;0.50;;;8.40;99.90;;;;;;4956684;28;20034;-93
2020/12/24 08:53:44;;;;;;;0.28;0.28;;;8.50;99.90;;;;;;4959092;28;20039;-93
2020/12/24 08:56:15;;;;;;;0.68;0.68;;;8.70;99.90;;;;;;4959591;28;20031;-93
2020/12/24 08:58:53;;;;;;;0.10;0.10;;;9.00;99.90;;;;;;4959741;28;20043;-93
2020/12/24 09:01:20;;;;;;;0.10;0.10;;;9.00;99.90;;;;;;4958426;28;20023;-93
2020/12/24 09:03:47;;;;;;;1.30;1.27;;;8.80;99.90;;;;;;4958171;28;20564;-91
2020/12/24 09:06:15;;;;;;;0.63;0.63;;;8.40;99.90;;;;;;4957559;28;20468;-93
2020/12/24 09:08:48;;;;;;;0.20;0.20;;;8.40;99.90;;;;;;4977848;28;20500;-91
2020/12/24 09:11:33;;;;;;;0.20;0.20;;;8.40;99.90;;;;;;4979078;28;20510;-93
2020/12/24 09:14:04;;;;;;;0.10;0.10;;;8.50;99.90;;;;;;4979504;28;20031;-93
2020/12/24 09:16:34;;;;;;;0.63;0.63;;;8.40;99.90;;;;;;4979552;28;20030;-93
2020/12/24 09:19:05;;;;;;;1.30;1.20;;;8.70;99.90;;;;;;4996702;28;20034;-93
2020/12/24 09:21:32;;;;;;;0.20;0.20;;;8.80;99.90;;;;;;4979862;28;20027;-93
2020/12/24 09:24:09;;;;;;;0.10;0.10;;;8.50;99.90;;;;;;4979368;28;20122;-93
2020/12/24 09:26:52;;;;;;;0.20;0.20;;;8.40;99.90;;;;;;4979514;28;20026;-92
2020/12/24 09:29:19;;;;;;;0.20;0.20;;;8.60;99.90;;;;;;4979488;28;20050;-92
2020/12/24 09:32:12;;;;;;;0.10;0.10;;;8.60;99.90;;;;;;4980279;28;20088;-93
2020/12/24 09:34:38;;;;;;;0.25;0.25;;;8.40;99.90;;;;;;4977051;28;20599;-93
2020/12/24 09:37:04;;;;;;;0.10;0.10;;;8.30;99.90;;;;;;4978967;28;20117;-92
2020/12/24 09:39:29;;;;;;;0.17;0.17;;;8.30;99.90;;;;;;4979386;28;20610;-93
2020/12/24 09:41:55;;;;;;;1.40;1.33;;;8.50;99.90;;;;;;4979244;28;20060;-93
2020/12/24 09:44:21;;;;;;;0.20;0.20;;;8.40;99.90;;;;;;4961463;28;20078;-93
2020/12/24 09:46:48;;;;;;;0.25;0.25;;;8.30;99.90;;;;;;4958739;28;20019;-93
2020/12/24 09:49:14;;;;;;;;;;;8.40;99.90;;;;;;4979790;28;20507;-93
2020/12/24 09:51:41;;;;;;;1.67;1.35;;;8.30;99.90;;;;;;4979477;28;19917;-93
2020/12/24 09:54:07;;;;;;;0.20;0.20;;;8.50;99.90;;;;;;4979170;28;20030;-93
2020/12/24 09:57:15;;;;;;;0.88;0.80;;;8.60;99.90;;;;;;4979004;28;20050;-92
2020/12/24 09:59:41;;;;;;;0.50;0.50;;;8.60;99.90;;;;;;4979251;28;20030;-92
2020/12/24 10:02:07;;;;;;;0.43;0.43;;;8.80;99.90;;;;;;4978907;28;20499;-93
2020/12/24 10:04:33;;;;;;;1.27;1.17;;;8.60;99.90;;;;;;4979679;28;20603;-93
2020/12/24 10:06:58;;;;;;;26.63;2.80;;;8.60;99.90;;;;;;4979523;28;20030;-93
2020/12/24 10:09:25;;;;;;;0.30;0.30;;;8.50;99.90;;;;;;4978891;28;20018;-93
2020/12/24 10:11:57;;;;;;;0.10;0.10;;;8.80;99.90;;;;;;4978814;28;20476;-93
2020/12/24 10:14:23;;;;;;;14.93;0.77;;;8.70;99.90;;;;;;4978979;28;20030;-94
2020/12/24 10:17:22;;;;;;;0.28;0.28;;;8.60;99.90;;;;;;4978424;28;20558;-93
2020/12/24 10:26:52;;;;;;;0.10;0.10;;;8.80;99.90;;;;;;4995853;28;20053;-93
2020/12/24 10:29:18;;;;;;;;;;;9.00;99.90;;;;;;4963245;28;20027;-91
2020/12/24 10:31:48;;;;;;;0.10;0.10;;;8.80;99.90;;;;;;4966494;28;19910;-91
2020/12/24 10:34:14;;;;;;;0.28;0.28;;;8.60;99.90;;;;;;4957099;28;20405;-92
2020/12/24 10:36:43;;;;;;;0.70;0.70;;;8.70;99.90;;;;;;4957360;28;20073;-92
2020/12/24 10:39:20;;;;;;;0.17;0.17;;;8.90;99.90;;;;;;4965436;28;20031;-92
2020/12/24 10:41:51;;;;;;;0.30;0.30;;;8.80;99.90;;;;;;4964287;28;20031;-92
2020/12/24 10:44:18;;;;;;;0.75;0.75;;;9.10;99.90;;;;;;4957181;28;20031;-93
2020/12/24 10:46:45;;;;;;;;;;;9.10;99.90;;;;;;4954943;28;20038;-91
2020/12/24 10:49:12;;;;;;;0.25;0.25;;;8.90;99.90;;;;;;4958130;28;19941;-91
2020/12/24 10:51:40;;;;;;;0.55;0.55;;;8.50;99.90;;;;;;4965140;28;20033;-89
2020/12/24 10:54:07;;;;;;;0.52;0.52;;;8.40;99.90;;;;;;4934769;28;20030;-92
2020/12/24 10:56:36;;;;;;;1.95;1.08;;;8.40;99.90;;;;;;4964875;28;20030;-91
2020/12/24 11:05:47;;;;;;;0.93;0.93;;;8.60;99.90;;;;;;4974191;28;20086;-93
2020/12/24 11:08:13;;;;;;;0.47;0.47;;;9.00;99.90;;;;;;4960480;28;20030;-93
2020/12/24 11:10:39;;;;;;;1.80;0.90;;;9.00;99.90;;;;;;4977435;28;20081;-93
2020/12/24 11:13:05;;;;;;;2.83;1.45;;;9.30;99.90;;;;;;4977513;28;20030;-92
2020/12/24 11:15:31;;;;;;;1.50;1.40;;;9.40;99.90;;;;;;4970288;28;20457;-93
2020/12/24 11:17:56;;;;;;;1.38;1.25;;;9.40;99.90;;;;;;4957980;28;20034;-93
2020/12/24 11:20:22;;;;;;;0.55;0.55;;;9.40;99.90;;;;;;4964853;28;20026;-93
2020/12/24 11:22:48;;;;;;;2.10;1.00;;;9.20;99.90;;;;;;4977088;28;20028;-91
2020/12/24 11:25:14;;;;;;;0.68;0.68;;;9.00;99.90;;;;;;4973300;28;20033;-93
2020/12/24 11:27:39;;;;;;;0.80;0.80;;;8.90;99.90;;;;;;4960916;28;20275;-93
2020/12/24 11:30:05;;;;;;;0.80;0.80;;;8.90;99.90;;;;;;4959761;28;20053;-94
2020/12/24 11:32:31;;;;;;;0.95;0.90;;;9.00;99.90;;;;;;4977089;28;20026;-93
2020/12/24 11:34:57;;;;;;;1.15;1.10;;;9.00;99.90;;;;;;4976807;28;20030;-92
2020/12/24 11:37:22;;;;;;;1.27;1.15;;;8.90;99.90;;;;;;4973293;28;20031;-93
2020/12/24 11:39:48;;;;;;;0.73;0.73;;;8.90;99.90;;;;;;4957510;28;20019;-92
2020/12/24 11:42:14;;;;;;;1.80;1.15;;;8.80;99.90;;;;;;4957694;28;20108;-91
2020/12/24 11:44:40;;;;;;;6.32;2.25;;;8.80;99.90;;;;;;4957836;28;20027;-92
2020/12/24 11:47:06;;;;;;;0.17;0.17;;;8.90;99.90;;;;;;4974246;28;20035;-94
2020/12/24 11:49:56;;;;;;;4.20;2.80;;;8.90;99.90;;;;;;4957736;28;20019;-94
2020/12/24 11:52:22;;;;;;;1.13;0.98;;;8.90;99.90;;;;;;4957035;28;20432;-93
2020/12/24 11:54:48;;;;;;;1.80;1.52;;;8.80;99.90;;;;;;4957414;28;20027;-93
2020/12/24 11:57:14;;;;;;;1.88;1.67;;;8.80;99.90;;;;;;4956594;28;20034;-93
2020/12/24 11:59:40;;;;;;;16.77;1.38;;;8.80;99.90;;;;;;4956905;28;20023;-93
2020/12/24 12:02:06;;;;;;;0.87;0.87;;;8.80;99.90;;;;;;4956982;28;20066;-93
2020/12/24 12:04:32;;;;;;;0.53;0.53;;;8.80;99.90;;;;;;4957181;28;20034;-92
2020/12/24 12:06:57;;;;;;;0.80;0.80;;;8.80;99.90;;;;;;4938041;29;20493;-92
2020/12/24 12:09:23;;;;;;;0.63;0.63;;;8.70;99.90;;;;;;4939198;28;20038;-92
2020/12/24 12:11:49;;;;;;;0.55;0.52;;;8.70;99.90;;;;;;4954177;28;20030;-93
2020/12/24 12:14:15;;;;;;;0.67;0.67;;;8.70;99.90;;;;;;4960738;28;20023;-93
2020/12/24 12:16:41;;;;;;;0.80;0.80;;;8.80;99.90;;;;;;4960538;28;20125;-93
2020/12/24 12:19:07;;;;;;;0.10;0.10;;;9.00;99.90;;;;;;4960585;28;20140;-93
2020/12/24 12:21:35;;;;;;;0.43;0.43;;;9.20;99.90;;;;;;4960589;28;20400;-93
2020/12/24 12:24:01;;;;;;;0.20;0.20;;;9.40;99.90;;;;;;4960355;28;20046;-93
2020/12/24 12:26:27;;;;;;;0.20;0.20;;;9.30;99.90;;;;;;4949422;29;20039;-92
2020/12/24 12:28:52;;;;;;;0.20;0.20;;;9.40;99.90;;;;;;4943106;28;20023;-93
2020/12/24 12:31:23;;;;;;;6.13;1.58;;;9.30;99.90;;;;;;4960527;28;20132;-92
2020/12/24 12:33:51;;;;;;;2.83;2.05;;;9.10;99.90;;;;;;4960132;28;20031;-93
2020/12/24 12:36:20;;;;;;;2.55;0.75;;;9.00;99.90;;;;;;4959836;28;20027;-93
2020/12/24 12:38:47;;;;;;;1.00;0.73;;;8.90;99.90;;;;;;4945727;28;20113;-93
2020/12/24 12:41:15;;;;;;;1.23;1.13;;;8.90;99.90;;;;;;4940797;29;20023;-91
2020/12/24 12:43:41;;;;;;;0.57;0.57;;;8.90;99.90;;;;;;4967566;28;20031;-91
2020/12/24 12:46:07;;;;;;;0.23;0.23;;;8.90;99.90;;;;;;4955171;28;20021;-91
2020/12/24 12:48:33;;;;;;;1.05;0.68;;;9.00;99.90;;;;;;4939606;29;20023;-92
2020/12/24 12:50:59;;;;;;;1.52;0.55;;;9.00;99.90;;;;;;4939211;29;20026;-92
2020/12/24 12:53:26;;;;;;;0.73;0.73;;;9.00;99.90;;;;;;4938978;29;20035;-92
2020/12/24 12:55:51;;;;;;;0.63;0.63;;;8.90;99.90;;;;;;4938762;28;20032;-93
2020/12/24 12:58:17;;;;;;;0.82;0.82;;;8.90;99.90;;;;;;4938840;28;20035;-93
2020/12/24 13:00:43;;;;;;;0.43;0.43;;;8.90;99.90;;;;;;4951355;28;20034;-92
2020/12/24 13:03:09;;;;;;;0.33;0.33;;;8.90;99.90;;;;;;4937763;29;20030;-92
2020/12/24 13:05:35;;;;;;;0.57;0.57;;;9.00;99.90;;;;;;4944947;28;20416;-91
2020/12/24 13:08:02;;;;;;;0.10;0.10;;;9.00;99.90;;;;;;4973019;28;20069;-91
2020/12/24 13:10:28;;;;;;;0.65;0.65;;;9.00;99.90;;;;;;4956131;28;20029;-91
2020/12/24 13:12:54;;;;;;;0.73;0.73;;;9.00;99.90;;;;;;4955882;28;20038;-91
2020/12/24 13:15:20;;;;;;;1.02;0.95;;;9.00;99.90;;;;;;4981588;28;20049;-91
2020/12/24 13:17:46;;;;;;;0.17;0.17;;;9.00;99.90;;;;;;4961246;28;20065;-91